Time,TemperatureF,DewpointF,PressureIn,WindDirection,WindDirectionDegrees,WindSpeedMPH,WindSpeedGustMPH,Humidity,HourlyPrecipIn,Conditions,Clouds,dailyrainin,SoftwareType,DateUTC
2013-04-23 00:03:00,41.0,27.0,30.42,SSW,195,10.0,17.0,56,0.00,,,0.00,,2013-04-23 04:03:00,
2013-04-23 00:13:00,41.0,27.0,30.42,SSW,195,10.0,17.0,56,0.00,,,0.00,,2013-04-23 04:13:00,
2013-04-23 00:23:00,40.0,26.0,30.42,SSE,152,5.0,12.0,57,0.00,,,0.00,,2013-04-23 04:23:00,
2013-04-23 00:33:00,40.0,26.0,30.41,SE,137,4.0,9.0,57,0.00,,,0.00,,2013-04-23 04:33:00,
2013-04-23 00:43:00,40.0,26.0,30.41,SE,137,4.0,9.0,57,0.00,,,0.00,,2013-04-23 04:43:00,
2013-04-23 00:53:00,40.0,26.0,30.41,SSE,155,5.0,13.0,58,0.00,,,0.00,,2013-04-23 04:53:00,
2013-04-23 01:02:00,39.0,26.0,30.41,SSE,161,6.0,13.0,59,0.00,,,0.00,,2013-04-23 05:02:00,
2013-04-23 01:12:00,39.0,26.0,30.41,SSE,161,6.0,13.0,59,0.00,,,0.00,,2013-04-23 05:12:00,
2013-04-23 01:22:00,39.0,26.0,30.40,South,172,6.0,12.0,60,0.00,,,0.00,,2013-04-23 05:22:00,
2013-04-23 01:32:00,39.0,27.0,30.40,South,173,6.0,15.0,61,0.00,,,0.00,,2013-04-23 05:32:00,
2013-04-23 01:42:00,39.0,27.0,30.40,South,173,6.0,15.0,61,0.00,,,0.00,,2013-04-23 05:42:00,
2013-04-23 01:52:00,38.0,26.0,30.40,South,176,7.0,14.0,62,0.00,,,0.00,,2013-04-23 05:52:00,
2013-04-23 02:02:00,38.0,27.0,30.39,SSE,150,4.0,11.0,63,0.00,,,0.00,,2013-04-23 06:02:00,
2013-04-23 02:12:00,38.0,27.0,30.39,SSE,150,4.0,11.0,63,0.00,,,0.00,,2013-04-23 06:12:00,
2013-04-23 02:22:00,37.0,26.0,30.39,South,180,6.0,10.0,64,0.00,,,0.00,,2013-04-23 06:22:00,
2013-04-23 02:33:00,37.0,26.0,30.39,South,172,6.0,9.0,65,0.00,,,0.00,,2013-04-23 06:33:00,
2013-04-23 02:42:00,37.0,26.0,30.39,South,172,6.0,9.0,65,0.00,,,0.00,,2013-04-23 06:42:00,
2013-04-23 02:52:00,37.0,27.0,30.38,South,174,6.0,12.0,66,0.00,,,0.00,,2013-04-23 06:52:00,
2013-04-23 03:02:00,37.0,27.0,30.37,South,178,9.0,17.0,68,0.00,,,0.00,,2013-04-23 07:02:00,
2013-04-23 03:11:00,37.0,27.0,30.37,South,178,9.0,17.0,68,0.00,,,0.00,,2013-04-23 07:11:00,
2013-04-23 03:22:00,37.0,28.0,30.37,SE,133,8.0,17.0,70,0.00,,,0.00,,2013-04-23 07:22:00,
2013-04-23 03:32:00,37.0,28.0,30.36,SSW,200,11.0,23.0,71,0.00,,,0.00,,2013-04-23 07:32:00,
2013-04-23 03:42:00,37.0,28.0,30.36,SSW,200,11.0,23.0,71,0.00,,,0.00,,2013-04-23 07:42:00,
2013-04-23 03:52:00,37.0,28.0,30.36,SE,135,9.0,17.0,71,0.00,,,0.00,,2013-04-23 07:52:00,
2013-04-23 04:02:00,36.0,28.0,30.36,SE,134,6.0,15.0,72,0.00,,,0.00,,2013-04-23 08:02:00,
2013-04-23 04:11:00,36.0,28.0,30.36,SE,134,6.0,15.0,72,0.00,,,0.00,,2013-04-23 08:11:00,
2013-04-23 04:22:00,36.0,28.0,30.35,South,170,10.0,16.0,72,0.00,,,0.00,,2013-04-23 08:22:00,
2013-04-23 04:32:00,37.0,29.0,30.35,South,169,9.0,15.0,72,0.00,,,0.00,,2013-04-23 08:32:00,
2013-04-23 04:42:00,37.0,29.0,30.35,South,169,9.0,15.0,72,0.00,,,0.00,,2013-04-23 08:42:00,
2013-04-23 04:52:00,37.0,29.0,30.36,SSE,168,12.0,21.0,72,0.00,,,0.00,,2013-04-23 08:52:00,
2013-04-23 05:02:00,37.0,29.0,30.36,South,176,6.0,14.0,72,0.00,,,0.00,,2013-04-23 09:02:00,
2013-04-23 05:11:00,37.0,29.0,30.36,South,176,6.0,14.0,72,0.00,,,0.00,,2013-04-23 09:11:00,
2013-04-23 05:22:00,37.0,29.0,30.36,SSE,162,7.0,15.0,72,0.00,,,0.00,,2013-04-23 09:22:00,
2013-04-23 05:33:00,37.0,29.0,30.35,South,190,5.0,14.0,72,0.00,,,0.00,,2013-04-23 09:33:00,
2013-04-23 05:43:00,37.0,29.0,30.35,South,190,5.0,14.0,72,0.00,,,0.00,,2013-04-23 09:43:00,
2013-04-23 05:52:00,37.0,29.0,30.35,South,179,4.0,9.0,72,0.00,,,0.00,,2013-04-23 09:52:00,
2013-04-23 06:03:00,37.0,29.0,30.34,South,184,2.0,5.0,73,0.00,,,0.00,,2013-04-23 10:03:00,
2013-04-23 06:13:00,37.0,29.0,30.34,South,184,2.0,5.0,73,0.00,,,0.00,,2013-04-23 10:13:00,
2013-04-23 06:23:00,36.0,28.0,30.34,SE,142,2.0,4.0,73,0.00,,,0.00,,2013-04-23 10:23:00,
2013-04-23 06:33:00,36.0,28.0,30.33,South,173,2.0,5.0,73,0.00,,,0.00,,2013-04-23 10:33:00,
2013-04-23 06:42:00,36.0,28.0,30.33,South,173,2.0,5.0,73,0.00,,,0.00,,2013-04-23 10:42:00,
2013-04-23 06:52:00,36.0,29.0,30.32,SSE,160,6.0,10.0,74,0.00,,,0.00,,2013-04-23 10:52:00,
2013-04-23 07:03:00,36.0,29.0,30.32,South,176,6.0,13.0,74,0.00,,,0.00,,2013-04-23 11:03:00,
2013-04-23 07:12:00,36.0,29.0,30.32,South,176,6.0,13.0,74,0.00,,,0.00,,2013-04-23 11:12:00,
2013-04-23 07:22:00,36.0,29.0,30.32,South,183,3.0,11.0,74,0.00,,,0.00,,2013-04-23 11:22:00,
2013-04-23 07:32:00,36.0,29.0,30.32,SSE,157,4.0,9.0,76,0.00,,,0.00,,2013-04-23 11:32:00,
2013-04-23 07:43:00,36.0,29.0,30.32,SSE,157,4.0,9.0,76,0.00,,,0.00,,2013-04-23 11:43:00,
2013-04-23 07:52:00,36.0,29.0,30.33,SSE,164,3.0,5.0,77,0.00,,,0.00,,2013-04-23 11:52:00,
2013-04-23 08:02:00,37.0,30.0,30.32,SSE,162,2.0,8.0,77,0.00,,,0.00,,2013-04-23 12:02:00,
2013-04-23 08:12:00,37.0,30.0,30.32,SSE,162,2.0,8.0,77,0.00,,,0.00,,2013-04-23 12:12:00,
2013-04-23 08:22:00,37.0,30.0,30.32,SSE,156,3.0,9.0,77,0.00,,,0.00,,2013-04-23 12:22:00,
2013-04-23 08:32:00,37.0,30.0,30.32,South,189,7.0,13.0,76,0.00,,,0.00,,2013-04-23 12:32:00,
2013-04-23 08:42:00,37.0,30.0,30.32,South,189,7.0,13.0,76,0.00,,,0.00,,2013-04-23 12:42:00,
2013-04-23 08:52:00,38.0,31.0,30.31,South,184,6.0,12.0,75,0.00,,,0.00,,2013-04-23 12:52:00,
2013-04-23 09:01:00,39.0,31.0,30.31,South,174,6.0,11.0,72,0.00,,,0.00,,2013-04-23 13:01:00,
2013-04-23 09:11:00,39.0,31.0,30.31,South,174,6.0,11.0,72,0.00,,,0.00,,2013-04-23 13:11:00,
2013-04-23 09:22:00,40.0,32.0,30.31,South,175,5.0,11.0,72,0.00,,,0.00,,2013-04-23 13:22:00,
2013-04-23 09:32:00,40.0,31.0,30.30,South,179,6.0,9.0,70,0.00,,,0.00,,2013-04-23 13:32:00,
2013-04-23 09:42:00,40.0,31.0,30.30,South,179,6.0,9.0,70,0.00,,,0.00,,2013-04-23 13:42:00,
2013-04-23 09:52:00,41.0,32.0,30.30,South,178,5.0,10.0,69,0.00,,,0.00,,2013-04-23 13:52:00,
2013-04-23 10:02:00,41.0,32.0,30.29,SSW,195,4.0,9.0,70,0.00,,,0.00,,2013-04-23 14:02:00,
2013-04-23 10:11:00,41.0,32.0,30.29,SSW,195,4.0,9.0,70,0.00,,,0.00,,2013-04-23 14:11:00,
2013-04-23 10:22:00,43.0,33.0,30.29,SSE,149,2.0,11.0,67,0.00,,,0.00,,2013-04-23 14:22:00,
2013-04-23 10:32:00,44.0,32.0,30.28,South,175,5.0,11.0,62,0.00,,,0.00,,2013-04-23 14:32:00,
2013-04-23 10:42:00,44.0,32.0,30.28,South,175,5.0,11.0,62,0.00,,,0.00,,2013-04-23 14:42:00,
2013-04-23 10:52:00,45.0,32.0,30.27,South,171,5.0,8.0,61,0.00,,,0.00,,2013-04-23 14:52:00,
2013-04-23 11:01:00,45.0,32.0,30.27,South,171,5.0,8.0,61,0.00,,,0.00,,2013-04-23 15:01:00,
2013-04-23 11:12:00,46.0,32.0,30.27,East,91,2.0,10.0,59,0.00,,,0.00,,2013-04-23 15:12:00,
2013-04-23 11:22:00,47.0,34.0,30.27,NE,51,2.0,8.0,61,0.00,,,0.00,,2013-04-23 15:22:00,
2013-04-23 11:32:00,48.0,33.0,30.26,SSW,205,1.0,10.0,56,0.00,,,0.00,,2013-04-23 15:32:00,
2013-04-23 11:43:00,48.0,33.0,30.26,SSW,205,1.0,10.0,56,0.00,,,0.00,,2013-04-23 15:43:00,
2013-04-23 11:53:00,49.0,33.0,30.24,SSE,148,4.0,9.0,53,0.00,,,0.00,,2013-04-23 15:53:00,
2013-04-23 12:03:00,51.0,34.0,30.24,SSE,165,5.0,9.0,51,0.00,,,0.00,,2013-04-23 16:03:00,
2013-04-23 12:12:00,51.0,34.0,30.24,SSE,165,5.0,9.0,51,0.00,,,0.00,,2013-04-23 16:12:00,
2013-04-23 12:23:00,51.0,33.0,30.23,SE,143,6.0,11.0,49,0.00,,,0.00,,2013-04-23 16:23:00,
2013-04-23 12:34:00,52.0,33.0,30.23,South,178,7.0,11.0,48,0.00,,,0.00,,2013-04-23 16:34:00,
2013-04-23 12:43:00,52.0,33.0,30.23,South,178,7.0,11.0,48,0.00,,,0.00,,2013-04-23 16:43:00,
2013-04-23 12:52:00,52.0,32.0,30.23,East,94,5.0,13.0,47,0.00,,,0.00,,2013-04-23 16:52:00,
2013-04-23 13:02:00,53.0,34.0,30.23,SE,124,1.0,8.0,48,0.00,,,0.00,,2013-04-23 17:02:00,
2013-04-23 13:12:00,53.0,34.0,30.23,SE,124,1.0,8.0,48,0.00,,,0.00,,2013-04-23 17:12:00,
2013-04-23 13:22:00,54.0,34.0,30.23,SSE,166,6.0,13.0,46,0.00,,,0.00,,2013-04-23 17:22:00,
2013-04-23 13:33:00,54.0,34.0,30.22,SSE,150,4.0,11.0,46,0.00,,,0.00,,2013-04-23 17:33:00,
2013-04-23 13:42:00,54.0,34.0,30.22,SSE,150,4.0,11.0,46,0.00,,,0.00,,2013-04-23 17:42:00,
2013-04-23 13:53:00,54.0,34.0,30.22,SSE,164,4.0,12.0,47,0.00,,,0.00,,2013-04-23 17:53:00,
2013-04-23 14:02:00,55.0,35.0,30.22,SE,134,3.0,13.0,46,0.00,,,0.00,,2013-04-23 18:02:00,
2013-04-23 14:12:00,55.0,35.0,30.22,SE,134,3.0,13.0,46,0.00,,,0.00,,2013-04-23 18:12:00,
2013-04-23 14:22:00,56.0,34.0,30.21,SE,129,6.0,11.0,43,0.00,,,0.00,,2013-04-23 18:22:00,
2013-04-23 14:32:00,57.0,33.0,30.20,SW,229,4.0,12.0,40,0.00,,,0.00,,2013-04-23 18:32:00,
2013-04-23 14:42:00,57.0,33.0,30.20,SW,229,4.0,12.0,40,0.00,,,0.00,,2013-04-23 18:42:00,
2013-04-23 14:52:00,57.0,34.0,30.19,SW,215,8.0,15.0,41,0.00,,,0.00,,2013-04-23 18:52:00,
2013-04-23 15:02:00,58.0,34.0,30.19,SSE,157,3.0,8.0,41,0.00,,,0.00,,2013-04-23 19:02:00,
2013-04-23 15:11:00,58.0,34.0,30.19,SSE,157,3.0,8.0,41,0.00,,,0.00,,2013-04-23 19:11:00,
2013-04-23 15:22:00,59.0,33.0,30.18,SSE,167,4.0,9.0,38,0.00,,,0.00,,2013-04-23 19:22:00,
2013-04-23 15:32:00,58.0,34.0,30.17,SSE,150,5.0,12.0,41,0.00,,,0.00,,2013-04-23 19:32:00,
2013-04-23 15:42:00,58.0,34.0,30.17,SSE,150,5.0,12.0,41,0.00,,,0.00,,2013-04-23 19:42:00,
2013-04-23 15:52:00,58.0,33.0,30.16,South,174,6.0,14.0,39,0.00,,,0.00,,2013-04-23 19:52:00,
2013-04-23 16:02:00,58.0,34.0,30.16,SSE,165,5.0,12.0,41,0.00,,,0.00,,2013-04-23 20:02:00,
2013-04-23 16:11:00,58.0,34.0,30.16,SSE,165,5.0,12.0,41,0.00,,,0.00,,2013-04-23 20:11:00,
2013-04-23 16:22:00,58.0,34.0,30.14,SE,138,5.0,13.0,41,0.00,,,0.00,,2013-04-23 20:22:00,
2013-04-23 16:32:00,58.0,34.0,30.13,SSE,150,6.0,12.0,41,0.00,,,0.00,,2013-04-23 20:32:00,
2013-04-23 16:42:00,58.0,34.0,30.13,SSE,150,6.0,12.0,41,0.00,,,0.00,,2013-04-23 20:42:00,
2013-04-23 16:52:00,57.0,34.0,30.13,SSE,160,8.0,14.0,41,0.00,,,0.00,,2013-04-23 20:52:00,
2013-04-23 17:02:00,57.0,34.0,30.11,South,170,6.0,16.0,41,0.00,,,0.00,,2013-04-23 21:02:00,
2013-04-23 17:12:00,57.0,34.0,30.11,South,170,6.0,16.0,41,0.00,,,0.00,,2013-04-23 21:12:00,
2013-04-23 17:22:00,56.0,33.0,30.11,SSE,168,7.0,15.0,42,0.00,,,0.00,,2013-04-23 21:22:00,
2013-04-23 17:33:00,55.0,33.0,30.11,SSW,193,6.0,13.0,43,0.00,,,0.00,,2013-04-23 21:33:00,
2013-04-23 17:43:00,55.0,33.0,30.11,SSW,193,6.0,13.0,43,0.00,,,0.00,,2013-04-23 21:43:00,
2013-04-23 17:52:00,55.0,33.0,30.11,SSE,155,6.0,14.0,44,0.00,,,0.00,,2013-04-23 21:52:00,
2013-04-23 18:03:00,54.0,33.0,30.11,SSE,150,5.0,16.0,44,0.00,,,0.00,,2013-04-23 22:03:00,
2013-04-23 18:12:00,54.0,33.0,30.11,SSE,150,5.0,16.0,44,0.00,,,0.00,,2013-04-23 22:12:00,
2013-04-23 18:23:00,54.0,33.0,30.12,South,175,6.0,12.0,45,0.00,,,0.00,,2013-04-23 22:23:00,
2013-04-23 18:33:00,54.0,33.0,30.11,SSW,198,6.0,12.0,45,0.00,,,0.00,,2013-04-23 22:33:00,
2013-04-23 18:42:00,54.0,33.0,30.11,SSW,198,6.0,12.0,45,0.00,,,0.00,,2013-04-23 22:42:00,
2013-04-23 18:52:00,54.0,33.0,30.11,South,181,7.0,14.0,45,0.00,,,0.00,,2013-04-23 22:52:00,
2013-04-23 19:03:00,54.0,33.0,30.11,SSE,168,6.0,11.0,44,0.00,,,0.00,,2013-04-23 23:03:00,
2013-04-23 19:12:00,54.0,33.0,30.11,SSE,168,6.0,11.0,44,0.00,,,0.00,,2013-04-23 23:12:00,
2013-04-23 19:22:00,53.0,33.0,30.11,South,174,5.0,13.0,47,0.00,,,0.00,,2013-04-23 23:22:00,
2013-04-23 19:32:00,53.0,33.0,30.11,SSE,161,5.0,15.0,47,0.00,,,0.00,,2013-04-23 23:32:00,
2013-04-23 19:42:00,53.0,33.0,30.11,SSE,161,5.0,15.0,47,0.00,,,0.00,,2013-04-23 23:42:00,
2013-04-23 19:52:00,52.0,33.0,30.11,SSE,158,6.0,16.0,48,0.00,,,0.00,,2013-04-23 23:52:00,
2013-04-23 20:02:00,51.0,33.0,30.10,SSE,161,8.0,14.0,49,0.00,,,0.00,,2013-04-24 00:02:00,
2013-04-23 20:11:00,51.0,33.0,30.10,SSE,161,8.0,14.0,49,0.00,,,0.00,,2013-04-24 00:11:00,
2013-04-23 20:22:00,51.0,33.0,30.09,South,171,9.0,16.0,50,0.00,,,0.00,,2013-04-24 00:22:00,
2013-04-23 20:32:00,51.0,34.0,30.09,SW,231,9.0,13.0,51,0.00,,,0.00,,2013-04-24 00:32:00,
2013-04-23 20:42:00,51.0,34.0,30.09,SW,231,9.0,13.0,51,0.00,,,0.00,,2013-04-24 00:42:00,
2013-04-23 20:52:00,50.0,33.0,30.11,South,182,7.0,12.0,51,0.00,,,0.00,,2013-04-24 00:52:00,
2013-04-23 21:02:00,50.0,33.0,30.10,SSE,163,7.0,11.0,52,0.00,,,0.00,,2013-04-24 01:02:00,
2013-04-23 21:11:00,50.0,33.0,30.10,SSE,163,7.0,11.0,52,0.00,,,0.00,,2013-04-24 01:11:00,
2013-04-23 21:21:00,50.0,33.0,30.11,SSE,159,6.0,13.0,52,0.00,,,0.00,,2013-04-24 01:21:00,
2013-04-23 21:32:00,49.0,33.0,30.11,SSE,149,4.0,10.0,53,0.00,,,0.00,,2013-04-24 01:32:00,
2013-04-23 21:42:00,49.0,33.0,30.11,SSE,149,4.0,10.0,53,0.00,,,0.00,,2013-04-24 01:42:00,
2013-04-23 21:52:00,49.0,33.0,30.11,SSE,163,6.0,11.0,53,0.00,,,0.00,,2013-04-24 01:52:00,
2013-04-23 22:02:00,49.0,33.0,30.10,South,174,5.0,9.0,53,0.00,,,0.00,,2013-04-24 02:02:00,
2013-04-23 22:19:00,49.0,33.0,30.10,South,174,5.0,9.0,53,0.00,,,0.00,,2013-04-24 02:19:00,
2013-04-23 22:30:00,48.0,33.0,30.10,SSE,165,6.0,9.0,55,0.00,,,0.00,,2013-04-24 02:30:00,
2013-04-23 22:41:00,48.0,33.0,30.09,South,169,6.0,10.0,55,0.00,,,0.00,,2013-04-24 02:41:00,
2013-04-23 22:49:00,48.0,33.0,30.09,South,169,6.0,10.0,55,0.00,,,0.00,,2013-04-24 02:49:00,
2013-04-23 22:56:00,48.0,34.0,30.09,SSW,207,6.0,9.0,57,0.00,,,0.00,,2013-04-24 02:56:00,
2013-04-23 23:12:00,48.0,34.0,30.09,South,169,7.0,11.0,57,0.00,,,0.00,,2013-04-24 03:12:00,
2013-04-23 23:18:00,48.0,34.0,30.09,South,169,7.0,11.0,57,0.00,,,0.00,,2013-04-24 03:18:00,
2013-04-23 23:31:00,47.0,33.0,30.08,South,177,6.0,14.0,57,0.00,,,0.00,,2013-04-24 03:31:00,
2013-04-23 23:42:00,47.0,33.0,30.07,South,179,7.0,15.0,58,0.00,,,0.00,,2013-04-24 03:42:00,
2013-04-23 23:52:00,47.0,33.0,30.07,South,179,7.0,15.0,58,0.00,,,0.00,,2013-04-24 03:52:00,